createdAt,value
2023-02-02T00:01:59.360Z,5.00
2023-02-02T00:04:28.852Z,5.06
2023-02-02T00:06:58.915Z,5.10
2023-02-02T00:09:31.505Z,5.06
2023-02-02T00:11:59.011Z,5.09
2023-02-02T00:14:25.696Z,5.09
2023-02-02T00:16:56.517Z,5.13
2023-02-02T00:19:28.383Z,5.16
2023-02-02T00:21:55.366Z,5.24
2023-02-02T00:24:22.697Z,5.16
2023-02-02T00:26:52.093Z,5.20
2023-02-02T00:29:28.208Z,5.24
2023-02-02T00:31:54.715Z,5.25
2023-02-02T00:34:22.265Z,5.35
2023-02-02T00:36:49.592Z,5.32
2023-02-02T00:39:20.379Z,5.32
2023-02-02T00:41:47.241Z,5.35
2023-02-02T00:44:32.748Z,5.38
2023-02-02T00:46:59.595Z,5.39
2023-02-02T00:49:26.018Z,5.46
2023-02-02T00:51:52.419Z,5.47
2023-02-02T00:54:19.016Z,5.54
2023-02-02T00:56:45.411Z,5.49
2023-02-02T00:59:12.274Z,5.40
2023-02-02T01:01:38.709Z,5.34
2023-02-02T01:04:05.595Z,5.34
2023-02-02T01:06:32.001Z,5.36
2023-02-02T01:08:58.439Z,5.38
2023-02-02T01:11:25.698Z,5.33
2023-02-02T01:13:53.529Z,5.36
2023-02-02T01:16:22.417Z,5.38
2023-02-02T01:18:49.958Z,5.38
2023-02-02T01:21:16.609Z,5.32
2023-02-02T01:23:43.193Z,5.33
2023-02-02T01:26:11.016Z,5.36
2023-02-02T01:28:38.359Z,5.33
2023-02-02T01:31:07.503Z,5.32
2023-02-02T01:33:34.070Z,5.32
2023-02-02T01:36:05.055Z,5.28
2023-02-02T01:38:31.794Z,5.20
2023-02-02T01:41:00.106Z,5.22
2023-02-02T01:43:57.546Z,5.21
2023-02-02T01:46:32.264Z,5.18
2023-02-02T01:49:03.731Z,5.21
2023-02-02T01:51:40.172Z,5.26
2023-02-02T01:54:09.712Z,5.25
2023-02-02T01:57:01.347Z,5.21
2023-02-02T01:59:30.110Z,5.20
2023-02-02T02:01:56.934Z,5.21
2023-02-02T02:04:26.327Z,5.27
2023-02-02T02:06:53.652Z,5.24
2023-02-02T02:13:58.213Z,5.33
2023-02-02T02:17:18.872Z,5.31
2023-02-02T02:20:26.030Z,5.34
2023-02-02T02:23:37.612Z,5.26
2023-02-02T02:26:35.176Z,5.33
2023-02-02T02:29:40.722Z,5.33
2023-02-02T02:32:29.908Z,5.42
2023-02-02T02:35:20.401Z,5.42
2023-02-02T02:38:14.334Z,5.47
2023-02-02T02:40:57.340Z,5.42
2023-02-02T02:43:35.242Z,5.48
2023-02-02T02:46:02.580Z,5.48
2023-02-02T02:48:30.249Z,5.48
2023-02-02T02:51:29.478Z,5.48
2023-02-02T02:53:56.586Z,5.45
2023-02-02T02:56:33.194Z,5.51
2023-02-02T02:59:10.715Z,5.57
2023-02-02T03:01:51.846Z,5.47
2023-02-02T03:04:21.192Z,5.51
2023-02-02T03:07:15.424Z,5.44
2023-02-02T03:09:44.159Z,5.39
2023-02-02T03:12:10.733Z,5.44
2023-02-02T03:14:38.036Z,5.36
2023-02-02T03:17:04.435Z,5.33
2023-02-02T03:19:31.205Z,5.30
2023-02-02T03:21:57.607Z,5.28
2023-02-02T03:24:24.023Z,5.35
2023-02-02T03:26:50.457Z,5.36
2023-02-02T03:29:17.275Z,5.28
2023-02-02T03:31:43.948Z,5.41
2023-02-02T03:34:10.391Z,5.40
2023-02-02T03:36:36.791Z,5.35
2023-02-02T03:39:03.208Z,5.46
2023-02-02T03:41:29.619Z,5.43
2023-02-02T03:43:56.028Z,5.35
2023-02-02T03:46:22.487Z,5.40
2023-02-02T03:48:48.907Z,5.38
2023-02-02T03:51:15.722Z,5.34
2023-02-02T03:53:47.666Z,5.42
2023-02-02T03:56:15.034Z,5.31
2023-02-02T03:58:41.518Z,5.34
2023-02-02T04:01:11.726Z,5.34
2023-02-02T04:03:38.283Z,5.36
2023-02-02T04:06:04.747Z,5.35
2023-02-02T04:08:31.569Z,5.36
2023-02-02T04:10:58.057Z,5.35
2023-02-02T04:13:24.526Z,5.37
2023-02-02T04:15:58.998Z,5.42
2023-02-02T04:18:25.404Z,5.42
2023-02-02T04:20:57.160Z,5.48
2023-02-02T04:23:23.569Z,5.42
2023-02-02T04:25:51.043Z,5.39
2023-02-02T04:28:17.655Z,5.44
2023-02-02T04:30:44.176Z,5.51
2023-02-02T04:33:10.634Z,5.46
2023-02-02T04:35:37.039Z,5.45
2023-02-02T04:38:03.535Z,5.62
2023-02-02T04:40:30.010Z,5.46
2023-02-02T04:42:57.797Z,5.50
2023-02-02T04:45:24.645Z,5.43
2023-02-02T04:47:51.360Z,5.50
2023-02-02T04:50:17.763Z,5.48
2023-02-02T04:52:44.148Z,5.47
2023-02-02T04:55:10.554Z,5.46
2023-02-02T04:57:36.959Z,5.52
2023-02-02T05:00:03.992Z,5.53
2023-02-02T05:02:30.439Z,5.50
2023-02-02T05:04:56.860Z,5.54
2023-02-02T05:07:23.267Z,5.50
2023-02-02T05:09:49.714Z,5.46
2023-02-02T05:12:16.105Z,5.51
2023-02-02T05:14:42.566Z,5.45
2023-02-02T05:17:09.001Z,5.43
2023-02-02T05:19:35.417Z,5.51
2023-02-02T05:22:01.858Z,5.51
2023-02-02T05:24:28.289Z,5.58
2023-02-02T05:26:58.572Z,5.51
2023-02-02T05:29:25.336Z,5.49
2023-02-02T05:31:51.751Z,5.46
2023-02-02T05:34:18.253Z,5.54
2023-02-02T05:36:44.633Z,5.54
2023-02-02T05:39:11.144Z,5.48
2023-02-02T05:41:37.557Z,5.55
2023-02-02T05:44:04.547Z,5.45
2023-02-02T05:46:30.995Z,5.52
2023-02-02T05:48:59.243Z,5.52
2023-02-02T05:51:29.455Z,5.54
2023-02-02T05:53:55.860Z,5.49
2023-02-02T05:56:22.267Z,5.51
2023-02-02T05:58:49.841Z,5.53
2023-02-02T06:01:18.104Z,5.49
2023-02-02T06:03:44.685Z,5.50
2023-02-02T06:06:11.223Z,5.59
2023-02-02T06:08:37.622Z,5.63
2023-02-02T06:11:11.330Z,5.55
2023-02-02T06:13:37.940Z,5.57
2023-02-02T06:16:04.806Z,5.58
2023-02-02T06:18:31.317Z,5.59
2023-02-02T06:20:59.081Z,5.57
2023-02-02T06:23:25.626Z,5.45
2023-02-02T06:25:52.043Z,5.48
2023-02-02T06:28:18.575Z,5.48
2023-02-02T06:30:45.176Z,5.43
2023-02-02T06:33:12.202Z,5.55
2023-02-02T06:35:38.820Z,5.52
2023-02-02T06:38:05.397Z,5.50
2023-02-02T06:40:31.781Z,5.54
2023-02-02T06:43:03.191Z,5.48
2023-02-02T06:45:30.947Z,5.45
2023-02-02T06:48:03.442Z,5.46
2023-02-02T06:50:38.745Z,5.55
2023-02-02T06:53:07.771Z,5.40
2023-02-02T06:55:34.200Z,5.47
2023-02-02T06:58:01.538Z,5.46
2023-02-02T07:00:29.884Z,5.51
2023-02-02T07:02:56.384Z,5.47
2023-02-02T07:05:24.228Z,5.57
2023-02-02T07:07:51.626Z,5.41
2023-02-02T07:11:15.916Z,5.47
2023-02-02T07:13:06.795Z,5.48
2023-02-02T07:15:34.414Z,5.45
2023-02-02T07:18:01.049Z,5.48
2023-02-02T07:20:27.733Z,5.58
2023-02-02T07:22:54.124Z,5.49
2023-02-02T07:25:20.549Z,5.48
2023-02-02T07:27:47.866Z,5.46
2023-02-02T07:30:15.339Z,5.46
2023-02-02T07:32:46.971Z,5.40
2023-02-02T07:35:13.423Z,5.46
2023-02-02T07:37:40.172Z,5.42
2023-02-02T07:40:07.732Z,5.48
2023-02-02T07:42:34.145Z,5.65
2023-02-02T07:45:01.229Z,5.72
2023-02-02T07:47:47.587Z,5.62
2023-02-02T07:50:13.991Z,5.48
2023-02-02T07:52:40.420Z,5.41
2023-02-02T07:55:14.429Z,5.50
2023-02-02T07:57:41.442Z,5.62
2023-02-02T08:00:09.304Z,5.47
2023-02-02T08:02:38.860Z,5.63
2023-02-02T08:05:07.392Z,5.59
2023-02-02T08:07:34.967Z,5.56
2023-02-02T08:10:01.440Z,5.73
2023-02-02T08:12:28.259Z,5.77
2023-02-02T08:14:54.699Z,5.57
2023-02-02T08:17:22.930Z,5.79
2023-02-02T08:19:49.344Z,5.62
2023-02-02T08:22:15.724Z,5.60
2023-02-02T08:24:42.945Z,5.69
2023-02-02T08:27:09.849Z,5.71
2023-02-02T08:29:37.182Z,5.70
2023-02-02T08:32:04.471Z,5.70
2023-02-02T08:34:31.124Z,5.80
2023-02-02T08:36:57.521Z,5.83
2023-02-02T08:39:24.556Z,5.72
2023-02-02T08:41:50.984Z,5.72
2023-02-02T08:44:17.389Z,5.76
2023-02-02T08:46:45.891Z,5.83
2023-02-02T08:49:13.240Z,5.79
2023-02-02T08:51:39.730Z,5.92
2023-02-02T08:54:06.116Z,5.98
2023-02-02T08:56:32.560Z,5.99
2023-02-02T08:58:59.571Z,6.02
2023-02-02T09:01:30.880Z,5.91
2023-02-02T09:03:59.277Z,6.01
2023-02-02T09:06:32.071Z,5.84
2023-02-02T09:08:58.563Z,6.00
2023-02-02T09:11:25.208Z,5.92
2023-02-02T09:13:55.811Z,6.01
2023-02-02T09:16:25.822Z,6.02
2023-02-02T09:18:52.419Z,6.05
2023-02-02T09:21:19.432Z,6.10
2023-02-02T09:23:47.182Z,6.23
2023-02-02T09:26:17.301Z,6.26
2023-02-02T09:28:46.742Z,6.23
2023-02-02T09:31:13.420Z,6.29
2023-02-02T09:33:40.454Z,6.23
2023-02-02T09:36:09.842Z,6.10
2023-02-02T09:38:36.618Z,6.12
2023-02-02T09:41:21.686Z,6.16
2023-02-02T09:44:19.673Z,6.23
2023-02-02T09:47:15.312Z,6.50
2023-02-02T09:49:58.836Z,6.39
2023-02-02T09:52:42.201Z,6.29
2023-02-02T09:55:30.400Z,6.43
2023-02-02T09:58:24.746Z,6.35
2023-02-02T10:01:01.602Z,6.40
2023-02-02T10:03:36.054Z,6.59
2023-02-02T10:06:23.860Z,6.57
2023-02-02T10:08:55.765Z,6.64
2023-02-02T10:11:41.231Z,6.55
2023-02-02T10:14:15.283Z,6.53
2023-02-02T10:16:42.068Z,6.51
2023-02-02T10:19:13.834Z,6.59
2023-02-02T10:21:58.873Z,6.52
2023-02-02T10:24:27.953Z,6.58
2023-02-02T10:26:57.788Z,6.56
2023-02-02T10:29:49.166Z,6.57
2023-02-02T10:32:27.815Z,6.59
2023-02-02T10:35:16.042Z,6.66
2023-02-02T10:37:54.422Z,6.56
2023-02-02T10:40:39.599Z,6.63
2023-02-02T10:43:43.687Z,6.75
2023-02-02T10:46:16.428Z,6.79
2023-02-02T10:48:47.292Z,6.67
2023-02-02T10:51:30.001Z,6.80
2023-02-02T10:54:08.806Z,6.89
2023-02-02T10:56:41.957Z,6.86
2023-02-02T10:59:21.586Z,6.73
2023-02-02T11:01:48.644Z,6.72
2023-02-02T11:04:33.891Z,6.81
2023-02-02T11:07:01.619Z,6.91
2023-02-02T11:09:32.393Z,6.84
2023-02-02T11:12:10.438Z,6.94
2023-02-02T11:14:46.212Z,6.85
2023-02-02T11:17:21.894Z,6.99
2023-02-02T11:19:49.830Z,6.66
2023-02-02T11:22:30.730Z,6.73
2023-02-02T11:25:30.579Z,6.75
2023-02-02T11:27:57.839Z,6.78
2023-02-02T11:30:35.821Z,6.84
2023-02-02T11:33:26.313Z,6.86
2023-02-02T11:35:58.190Z,6.74
2023-02-02T11:38:25.554Z,6.74
2023-02-02T11:41:04.774Z,6.77
2023-02-02T11:43:41.173Z,6.73
2023-02-02T11:46:19.389Z,6.84
2023-02-02T11:48:58.060Z,6.78
2023-02-02T11:51:26.349Z,6.84
2023-02-02T11:54:06.413Z,6.82
2023-02-02T11:56:35.266Z,6.87
2023-02-02T11:59:03.904Z,6.95
2023-02-02T12:01:41.346Z,7.01
2023-02-02T12:04:16.768Z,7.13
2023-02-02T12:06:43.730Z,7.24
2023-02-02T12:09:17.035Z,7.29
2023-02-02T12:12:16.396Z,7.27
2023-02-02T12:15:07.601Z,7.36
2023-02-02T12:17:46.563Z,7.34
2023-02-02T12:20:17.383Z,7.29
2023-02-02T12:23:12.181Z,7.29
2023-02-02T12:25:47.599Z,7.17
2023-02-02T12:28:22.701Z,6.93
2023-02-02T12:31:06.470Z,6.82
2023-02-02T12:34:17.137Z,6.64
2023-02-02T12:36:54.040Z,6.54
2023-02-02T12:39:39.144Z,6.29
2023-02-02T12:42:23.885Z,6.46
2023-02-02T12:45:13.679Z,6.54
2023-02-02T12:47:49.663Z,6.49
2023-02-02T12:50:50.561Z,6.35
2023-02-02T12:53:42.195Z,6.06
2023-02-02T12:56:23.043Z,6.16
2023-02-02T12:59:15.846Z,5.96
2023-02-02T13:01:56.660Z,6.09
2023-02-02T13:04:54.341Z,6.09
2023-02-02T13:07:33.435Z,5.99
2023-02-02T13:10:02.983Z,6.10
2023-02-02T13:12:34.697Z,6.22
2023-02-02T13:15:04.607Z,6.18
2023-02-02T13:17:40.046Z,6.12
2023-02-02T13:20:18.397Z,6.06
2023-02-02T13:22:47.757Z,6.14
2023-02-02T13:25:21.077Z,6.27
2023-02-02T13:27:49.668Z,6.31
2023-02-02T13:30:35.024Z,6.20
2023-02-02T13:33:09.925Z,6.29
2023-02-02T13:35:55.281Z,6.34
2023-02-02T13:38:27.708Z,6.22
2023-02-02T13:40:55.921Z,6.28
2023-02-02T13:43:43.614Z,6.18
2023-02-02T13:46:36.788Z,6.25
2023-02-02T13:49:20.554Z,6.22
2023-02-02T13:52:11.585Z,6.26
2023-02-02T13:55:05.921Z,6.25
2023-02-02T13:58:14.282Z,6.32
2023-02-02T14:00:47.703Z,6.33
2023-02-02T14:03:38.460Z,6.38
2023-02-02T14:06:15.311Z,6.40
2023-02-02T14:08:46.738Z,6.50
2023-02-02T14:11:20.287Z,6.56
2023-02-02T14:14:08.754Z,6.45
2023-02-02T14:16:35.110Z,6.40
2023-02-02T14:19:02.972Z,6.48
2023-02-02T14:21:32.417Z,6.43
2023-02-02T14:24:22.797Z,6.45
2023-02-02T14:26:51.904Z,6.47
2023-02-02T14:29:35.696Z,6.49
2023-02-02T14:32:20.658Z,6.49
2023-02-02T14:34:49.253Z,6.39
2023-02-02T14:37:24.619Z,6.33
2023-02-02T14:40:06.196Z,6.36
2023-02-02T14:43:09.811Z,6.45
2023-02-02T14:45:39.222Z,6.34
2023-02-02T14:48:19.331Z,6.34
2023-02-02T14:50:53.300Z,6.37
2023-02-02T14:53:28.617Z,6.41
2023-02-02T14:56:13.377Z,6.37
2023-02-02T14:58:51.909Z,6.28
2023-02-02T15:01:22.785Z,6.23
2023-02-02T15:04:20.257Z,6.40
2023-02-02T15:06:47.997Z,6.43
2023-02-02T15:09:20.663Z,6.33
2023-02-02T15:12:01.083Z,6.27
2023-02-02T15:14:58.834Z,6.34
2023-02-02T15:17:49.318Z,6.23
2023-02-02T15:20:20.995Z,6.20
2023-02-02T15:22:53.721Z,6.15
2023-02-02T15:25:46.687Z,6.13
2023-02-02T15:28:28.391Z,6.05
2023-02-02T15:31:02.129Z,5.99
2023-02-02T15:33:36.491Z,5.99
2023-02-02T15:36:12.292Z,5.93
2023-02-02T15:38:41.253Z,5.91
2023-02-02T15:41:21.467Z,5.78
2023-02-02T15:43:48.083Z,5.78
2023-02-02T15:46:24.209Z,5.71
2023-02-02T15:49:33.317Z,5.67
2023-02-02T15:52:10.085Z,5.66
2023-02-02T15:54:39.217Z,5.60
2023-02-02T15:57:23.706Z,5.56
2023-02-02T15:59:50.513Z,5.58
2023-02-02T16:02:27.240Z,5.55
2023-02-02T16:04:53.747Z,5.48
2023-02-02T16:07:27.155Z,5.43
2023-02-02T16:09:53.856Z,5.41
2023-02-02T16:12:23.369Z,5.39
2023-02-02T16:14:51.996Z,5.31
2023-02-02T16:17:21.448Z,5.33
2023-02-02T16:19:49.992Z,5.28
2023-02-02T16:22:21.168Z,5.25
2023-02-02T16:24:49.216Z,5.11
2023-02-02T16:27:21.543Z,5.12
2023-02-02T16:29:49.565Z,5.06
2023-02-02T16:32:41.808Z,5.07
2023-02-02T16:35:35.684Z,5.01
2023-02-02T16:38:23.096Z,5.03
2023-02-02T16:40:51.916Z,4.82
2023-02-02T16:43:28.333Z,4.80
2023-02-02T16:46:17.877Z,4.77
2023-02-02T16:49:05.768Z,4.60
2023-02-02T16:51:34.100Z,4.56
2023-02-02T16:54:06.835Z,4.50
2023-02-02T16:56:37.267Z,4.35
2023-02-02T16:59:07.249Z,4.28
2023-02-02T17:01:40.497Z,4.28
2023-02-02T17:04:17.775Z,4.19
2023-02-02T17:06:52.395Z,4.16
2023-02-02T17:09:32.535Z,4.13
2023-02-02T17:12:02.963Z,4.06
2023-02-02T17:14:34.259Z,4.11
2023-02-02T17:17:06.731Z,3.98
2023-02-02T17:19:33.387Z,3.90
2023-02-02T17:22:02.085Z,3.85
2023-02-02T17:24:29.379Z,3.85
2023-02-02T17:26:55.986Z,3.85
2023-02-02T17:29:23.091Z,3.75
2023-02-02T17:31:49.621Z,3.76
2023-02-02T17:34:16.123Z,3.76
2023-02-02T17:36:43.624Z,3.59
2023-02-02T17:39:11.700Z,3.47
2023-02-02T17:41:39.080Z,3.43
2023-02-02T17:44:06.805Z,3.50
2023-02-02T17:46:33.409Z,3.49
2023-02-02T17:49:00.163Z,3.53
2023-02-02T17:51:26.546Z,3.47
2023-02-02T17:53:55.419Z,3.52
2023-02-02T17:56:22.047Z,3.51
2023-02-02T17:58:48.472Z,3.51
2023-02-02T18:01:15.005Z,3.51
2023-02-02T18:03:44.819Z,3.51
2023-02-02T18:06:11.477Z,3.38
2023-02-02T18:08:37.897Z,3.26
2023-02-02T18:11:04.335Z,3.26
2023-02-02T18:13:30.832Z,3.29
2023-02-02T18:15:59.521Z,3.18
2023-02-02T18:18:27.338Z,3.22
2023-02-02T18:20:53.861Z,3.27
2023-02-02T18:23:20.388Z,3.29
2023-02-02T18:25:47.091Z,3.24
2023-02-02T18:28:17.301Z,3.22
2023-02-02T18:30:44.836Z,3.18
2023-02-02T18:33:16.896Z,3.12
2023-02-02T18:35:47.579Z,3.05
2023-02-02T18:38:14.690Z,3.05
2023-02-02T18:40:41.091Z,2.99
2023-02-02T18:43:07.531Z,2.94
2023-02-02T18:45:33.957Z,2.87
2023-02-02T18:48:00.376Z,2.87
2023-02-02T18:50:26.855Z,2.93
2023-02-02T18:52:53.263Z,2.84
2023-02-02T18:55:19.785Z,2.83
2023-02-02T18:57:46.224Z,2.79
2023-02-02T19:00:13.108Z,2.73
2023-02-02T19:02:39.510Z,2.79
2023-02-02T19:05:24.927Z,2.82
2023-02-02T19:07:58.074Z,2.68
2023-02-02T19:10:32.120Z,2.65
2023-02-02T19:13:10.427Z,2.67
2023-02-02T19:15:38.421Z,2.63
2023-02-02T19:18:15.319Z,2.62
2023-02-02T19:20:42.683Z,2.58
2023-02-02T19:23:23.120Z,2.66
2023-02-02T19:25:53.943Z,2.64
2023-02-02T19:28:29.122Z,2.60
2023-02-02T19:31:01.254Z,2.61
2023-02-02T19:33:49.417Z,2.48
2023-02-02T19:36:21.595Z,2.51
2023-02-02T19:38:51.416Z,2.55
2023-02-02T19:41:20.922Z,2.53
2023-02-02T19:43:55.884Z,2.58
2023-02-02T19:46:25.385Z,2.45
2023-02-02T19:49:10.888Z,2.41
2023-02-02T19:51:37.285Z,2.34
2023-02-02T19:54:15.677Z,2.39
2023-02-02T19:56:42.070Z,2.45
2023-02-02T19:59:17.876Z,2.47
2023-02-02T20:01:50.505Z,2.46
2023-02-02T20:04:19.793Z,2.44
2023-02-02T20:06:58.556Z,2.47
2023-02-02T20:09:33.392Z,2.46
2023-02-02T20:12:00.461Z,2.44
2023-02-02T20:14:29.533Z,2.45
2023-02-02T20:17:11.604Z,2.49
2023-02-02T20:19:41.415Z,2.52
2023-02-02T20:22:25.167Z,2.54
2023-02-02T20:24:52.503Z,2.51
2023-02-02T20:27:21.747Z,2.64
2023-02-02T20:29:50.502Z,2.50
2023-02-02T20:32:25.883Z,2.34
2023-02-02T20:34:55.068Z,2.32
2023-02-02T20:37:29.138Z,2.41
2023-02-02T20:40:26.571Z,2.40
2023-02-02T20:42:53.470Z,2.39
2023-02-02T20:45:21.692Z,2.42
2023-02-02T20:47:49.619Z,2.42
2023-02-02T20:50:18.351Z,2.45
2023-02-02T20:52:44.757Z,2.37
2023-02-02T20:55:11.612Z,2.36
2023-02-02T20:57:40.606Z,2.32
2023-02-02T21:00:10.108Z,2.41
2023-02-02T21:02:36.585Z,2.34
2023-02-02T21:05:03.169Z,2.39
2023-02-02T21:07:33.609Z,2.44
2023-02-02T21:10:00.100Z,2.40
2023-02-02T21:12:26.515Z,2.39
2023-02-02T21:14:53.842Z,2.40
2023-02-02T21:17:20.312Z,2.30
2023-02-02T21:19:46.818Z,2.30
2023-02-02T21:22:13.507Z,2.29
2023-02-02T21:24:39.953Z,2.25
2023-02-02T21:27:06.725Z,2.36
2023-02-02T21:29:33.288Z,2.32
2023-02-02T21:32:02.159Z,2.28
2023-02-02T21:34:29.515Z,2.29
2023-02-02T21:36:57.984Z,2.30
2023-02-02T21:39:35.482Z,2.32
2023-02-02T21:42:07.883Z,2.30
2023-02-02T21:44:36.465Z,2.19
2023-02-02T21:47:03.034Z,2.20
2023-02-02T21:49:39.673Z,2.22
2023-02-02T21:52:15.541Z,2.13
2023-02-02T21:54:43.100Z,2.22
2023-02-02T21:57:21.269Z,2.27
2023-02-02T21:59:55.151Z,2.33
2023-02-02T22:02:44.512Z,2.41
2023-02-02T22:05:17.315Z,2.55
2023-02-02T22:07:49.526Z,2.53
2023-02-02T22:10:27.757Z,2.50
2023-02-02T22:12:54.510Z,2.51
2023-02-02T22:15:24.797Z,2.41
2023-02-02T22:17:51.265Z,2.36
2023-02-02T22:20:35.807Z,2.35
2023-02-02T22:23:03.537Z,2.43
2023-02-02T22:25:34.381Z,2.43
2023-02-02T22:28:22.397Z,2.52
2023-02-02T22:30:51.234Z,2.45
2023-02-02T22:33:17.794Z,2.44
2023-02-02T22:35:44.349Z,2.43
2023-02-02T22:38:19.509Z,2.42
2023-02-02T22:40:46.703Z,2.49
2023-02-02T22:43:16.095Z,2.44
2023-02-02T22:45:43.807Z,2.49
2023-02-02T22:48:11.008Z,2.55
2023-02-02T22:50:37.711Z,2.50
2023-02-02T22:53:04.619Z,2.57
2023-02-02T22:55:31.395Z,2.58
2023-02-02T22:57:58.040Z,2.63
2023-02-02T23:00:29.566Z,2.60
2023-02-02T23:02:56.654Z,2.62
2023-02-02T23:05:24.680Z,2.62
2023-02-02T23:07:51.786Z,2.65
2023-02-02T23:10:21.913Z,2.65
2023-02-02T23:12:49.002Z,2.66
2023-02-02T23:15:15.854Z,2.74
2023-02-02T23:17:43.369Z,2.73
2023-02-02T23:20:12.716Z,2.73
2023-02-02T23:22:39.137Z,2.73
2023-02-02T23:25:06.086Z,2.78
2023-02-02T23:27:32.633Z,2.89
2023-02-02T23:29:59.027Z,2.96
2023-02-02T23:32:25.483Z,2.98
2023-02-02T23:34:51.913Z,2.94
2023-02-02T23:37:18.609Z,2.95
2023-02-02T23:39:45.094Z,3.02
2023-02-02T23:42:11.484Z,2.95
2023-02-02T23:44:37.892Z,3.07
2023-02-02T23:47:04.789Z,3.12
2023-02-02T23:49:32.759Z,3.06
2023-02-02T23:51:59.575Z,3.12
2023-02-02T23:54:26.964Z,3.16
2023-02-02T23:56:53.347Z,3.17
2023-02-02T23:59:19.762Z,3.18
